createdAt,value
2018-07-13T00:00:12.582Z,17.90
2018-07-13T00:01:12.793Z,17.84
2018-07-13T00:02:12.997Z,17.84
2018-07-13T00:03:13.189Z,17.87
2018-07-13T00:04:13.383Z,17.86
2018-07-13T00:05:13.571Z,17.78
2018-07-13T00:06:13.766Z,17.81
2018-07-13T00:07:13.977Z,17.75
2018-07-13T00:08:14.175Z,17.84
2018-07-13T00:09:14.396Z,17.71
2018-07-13T00:10:14.582Z,17.77
2018-07-13T00:11:14.796Z,17.75
2018-07-13T00:12:15.012Z,17.59
2018-07-13T00:13:15.213Z,17.63
2018-07-13T00:14:15.413Z,17.75
2018-07-13T00:15:15.630Z,17.66
2018-07-13T00:16:15.834Z,17.59
2018-07-13T00:17:16.048Z,17.71
2018-07-13T00:18:16.257Z,17.59
2018-07-13T00:19:16.442Z,17.70
2018-07-13T00:20:16.654Z,17.75
2018-07-13T00:21:16.847Z,17.74
2018-07-13T00:22:17.046Z,17.64
2018-07-13T00:23:17.249Z,17.78
2018-07-13T00:24:17.448Z,17.66
2018-07-13T00:25:17.636Z,17.58
2018-07-13T00:26:17.818Z,17.71
2018-07-13T00:27:18.018Z,17.64
2018-07-13T00:28:18.214Z,17.71
2018-07-13T00:29:18.417Z,17.64
2018-07-13T00:30:18.605Z,17.66
2018-07-13T00:31:18.814Z,17.74
2018-07-13T00:32:19.005Z,17.64
2018-07-13T00:33:19.215Z,17.71
2018-07-13T00:34:19.431Z,17.63
2018-07-13T00:35:19.628Z,17.68
2018-07-13T00:36:19.826Z,17.62
2018-07-13T00:37:20.008Z,17.55
2018-07-13T00:38:20.221Z,17.55
2018-07-13T00:39:20.405Z,17.48
2018-07-13T00:40:20.592Z,17.52
2018-07-13T00:41:20.806Z,17.46
2018-07-13T00:42:21.026Z,17.48
2018-07-13T00:43:21.235Z,17.46
2018-07-13T00:44:21.445Z,17.43
2018-07-13T00:45:21.631Z,17.38
2018-07-13T00:46:21.846Z,17.33
2018-07-13T00:47:22.064Z,17.37
2018-07-13T00:48:22.264Z,17.31
2018-07-13T00:49:22.467Z,17.26
2018-07-13T00:50:22.679Z,17.28
2018-07-13T00:51:22.894Z,17.25
2018-07-13T00:52:23.098Z,17.31
2018-07-13T00:53:23.296Z,17.21
2018-07-13T00:54:23.489Z,17.19
2018-07-13T00:55:23.678Z,17.28
2018-07-13T00:56:23.873Z,17.28
2018-07-13T00:57:24.088Z,17.31
2018-07-13T00:58:24.284Z,17.25
2018-07-13T00:59:24.484Z,17.33
2018-07-13T01:01:56.620Z,17.07
2018-07-13T01:02:56.808Z,17.19
2018-07-13T01:03:56.993Z,17.15
2018-07-13T01:04:57.197Z,17.21
2018-07-13T01:05:57.390Z,17.21
2018-07-13T01:06:57.592Z,17.14
2018-07-13T01:07:57.795Z,17.07
2018-07-13T01:08:58.000Z,17.21
2018-07-13T01:09:58.198Z,17.07
2018-07-13T01:10:58.393Z,17.22
2018-07-13T01:11:58.590Z,17.15
2018-07-13T01:12:58.795Z,17.07
2018-07-13T01:15:30.661Z,17.11
2018-07-13T01:16:30.837Z,17.21
2018-07-13T01:17:31.042Z,17.12
2018-07-13T01:18:31.241Z,17.12
2018-07-13T01:19:31.447Z,17.18
2018-07-13T01:20:31.645Z,17.08
2018-07-13T01:21:31.846Z,17.08
2018-07-13T01:22:32.080Z,17.07
2018-07-13T01:23:32.290Z,17.12
2018-07-13T01:24:32.496Z,17.15
2018-07-13T01:25:32.692Z,17.07
2018-07-13T01:26:32.892Z,17.16
2018-07-13T01:27:33.089Z,17.15
2018-07-13T01:28:33.292Z,17.15
2018-07-13T01:29:33.509Z,17.16
2018-07-13T01:30:33.704Z,17.12
2018-07-13T01:31:33.904Z,17.19
2018-07-13T01:32:34.115Z,17.08
2018-07-13T01:33:34.330Z,17.15
2018-07-13T01:34:34.535Z,17.04
2018-07-13T01:35:34.744Z,17.08
2018-07-13T01:36:34.959Z,17.18
2018-07-13T01:37:35.157Z,17.07
2018-07-13T01:38:35.352Z,17.19
2018-07-13T01:39:35.568Z,17.04
2018-07-13T01:40:35.774Z,17.14
2018-07-13T01:41:35.992Z,17.11
2018-07-13T01:42:36.178Z,17.08
2018-07-13T01:43:36.365Z,17.16
2018-07-13T01:44:36.558Z,17.03
2018-07-13T01:45:36.760Z,17.08
2018-07-13T01:46:36.970Z,17.06
2018-07-13T01:47:37.153Z,17.12
2018-07-13T01:48:37.341Z,16.97
2018-07-13T01:49:37.554Z,16.93
2018-07-13T01:50:37.754Z,16.94
2018-07-13T01:51:37.943Z,16.88
2018-07-13T01:52:38.146Z,16.94
2018-07-13T01:53:38.362Z,16.89
2018-07-13T01:54:38.556Z,16.91
2018-07-13T01:55:38.786Z,16.89
2018-07-13T01:56:38.965Z,16.83
2018-07-13T01:57:39.179Z,16.81
2018-07-13T01:58:39.382Z,16.76
2018-07-13T01:59:39.573Z,16.81
2018-07-13T02:00:39.768Z,16.89
2018-07-13T02:01:39.959Z,16.73
2018-07-13T02:02:40.159Z,16.75
2018-07-13T02:03:40.351Z,16.75
2018-07-13T02:04:40.544Z,16.78
2018-07-13T02:05:40.736Z,16.70
2018-07-13T02:06:40.924Z,16.75
2018-07-13T02:07:41.126Z,16.76
2018-07-13T02:08:41.321Z,16.70
2018-07-13T02:09:41.517Z,16.68
2018-07-13T02:10:41.704Z,16.70
2018-07-13T02:11:41.901Z,16.75
2018-07-13T02:12:42.116Z,16.71
2018-07-13T02:13:42.337Z,16.67
2018-07-13T02:14:42.539Z,16.70
2018-07-13T02:15:42.747Z,16.71
2018-07-13T02:16:42.952Z,16.81
2018-07-13T02:17:43.133Z,16.81
2018-07-13T02:18:43.334Z,16.75
2018-07-13T02:19:43.545Z,16.86
2018-07-13T02:20:43.756Z,16.73
2018-07-13T02:21:43.944Z,16.86
2018-07-13T02:22:44.148Z,16.78
2018-07-13T02:23:44.346Z,16.79
2018-07-13T02:24:44.558Z,16.82
2018-07-13T02:25:44.772Z,16.82
2018-07-13T02:26:44.958Z,16.81
2018-07-13T02:27:45.171Z,16.79
2018-07-13T02:28:45.351Z,16.79
2018-07-13T02:29:45.538Z,16.82
2018-07-13T02:30:45.741Z,16.85
2018-07-13T02:31:45.960Z,16.76
2018-07-13T02:32:46.138Z,16.78
2018-07-13T02:33:46.399Z,16.86
2018-07-13T02:34:46.530Z,16.78
2018-07-13T02:35:46.798Z,16.81
2018-07-13T02:36:46.887Z,16.83
2018-07-13T02:37:47.095Z,16.81
2018-07-13T02:38:47.284Z,16.85
2018-07-13T02:39:47.500Z,16.81
2018-07-13T02:40:47.692Z,16.78
2018-07-13T02:41:47.879Z,16.73
2018-07-13T02:42:48.073Z,16.83
2018-07-13T02:43:48.269Z,16.79
2018-07-13T02:44:48.483Z,16.89
2018-07-13T02:45:48.684Z,16.76
2018-07-13T02:46:48.875Z,16.78
2018-07-13T02:47:49.093Z,16.78
2018-07-13T02:48:49.297Z,16.73
2018-07-13T02:49:49.496Z,16.70
2018-07-13T02:50:49.682Z,16.63
2018-07-13T02:51:49.862Z,16.66
2018-07-13T02:52:50.071Z,16.66
2018-07-13T02:53:50.262Z,16.56
2018-07-13T02:54:50.476Z,16.58
2018-07-13T02:57:22.621Z,16.42
2018-07-13T02:58:22.793Z,16.39
2018-07-13T02:59:22.977Z,16.38
2018-07-13T03:00:23.165Z,16.33
2018-07-13T03:01:23.363Z,16.35
2018-07-13T03:02:23.553Z,16.31
2018-07-13T03:03:23.762Z,16.33
2018-07-13T03:04:23.970Z,16.30
2018-07-13T03:05:24.172Z,16.28
2018-07-13T03:06:24.372Z,16.39
2018-07-13T03:07:24.562Z,16.30
2018-07-13T03:08:24.740Z,16.34
2018-07-13T03:09:24.950Z,16.30
2018-07-13T03:10:25.138Z,16.35
2018-07-13T03:11:25.334Z,16.25
2018-07-13T03:12:25.524Z,16.23
2018-07-13T03:13:25.719Z,16.20
2018-07-13T03:14:25.921Z,16.21
2018-07-13T03:15:26.094Z,16.25
2018-07-13T03:16:26.297Z,16.20
2018-07-13T03:17:26.675Z,16.20
2018-07-13T03:18:26.673Z,16.21
2018-07-13T03:19:26.875Z,16.05
2018-07-13T03:20:27.094Z,16.20
2018-07-13T03:21:27.280Z,16.09
2018-07-13T03:22:27.493Z,16.09
2018-07-13T03:23:27.687Z,16.09
2018-07-13T03:24:27.980Z,15.92
2018-07-13T03:25:28.043Z,16.04
2018-07-13T03:26:28.230Z,16.04
2018-07-13T03:27:28.435Z,16.00
2018-07-13T03:28:28.626Z,15.89
2018-07-13T03:29:28.833Z,15.94
2018-07-13T03:30:29.054Z,15.96
2018-07-13T03:31:29.245Z,16.00
2018-07-13T03:32:29.459Z,16.00
2018-07-13T03:33:29.649Z,15.90
2018-07-13T03:34:29.834Z,15.74
2018-07-13T03:35:30.092Z,15.75
2018-07-13T03:36:30.173Z,15.78
2018-07-13T03:37:30.357Z,15.72
2018-07-13T03:38:30.636Z,15.76
2018-07-13T03:39:30.779Z,15.78
2018-07-13T03:40:30.964Z,15.82
2018-07-13T03:41:31.190Z,15.74
2018-07-13T03:42:31.373Z,15.71
2018-07-13T03:43:31.578Z,15.69
2018-07-13T03:44:31.765Z,15.67
2018-07-13T03:45:31.964Z,15.60
2018-07-13T03:46:32.155Z,15.60
2018-07-13T03:47:32.353Z,15.64
2018-07-13T03:48:32.545Z,15.65
2018-07-13T03:49:32.750Z,15.54
2018-07-13T03:50:32.953Z,15.68
2018-07-13T03:51:33.167Z,15.72
2018-07-13T03:52:33.372Z,15.71
2018-07-13T03:53:33.572Z,15.71
2018-07-13T03:54:33.761Z,15.71
2018-07-13T03:55:33.969Z,15.75
2018-07-13T03:56:34.236Z,15.75
2018-07-13T03:57:34.295Z,15.83
2018-07-13T03:58:34.496Z,15.75
2018-07-13T03:59:34.713Z,15.71
2018-07-13T04:00:34.985Z,15.67
2018-07-13T04:01:35.112Z,15.68
2018-07-13T04:02:35.303Z,15.68
2018-07-13T04:03:35.736Z,15.74
2018-07-13T04:04:35.714Z,15.76
2018-07-13T04:05:35.903Z,15.84
2018-07-13T04:06:36.261Z,15.94
2018-07-13T04:07:36.299Z,15.89
2018-07-13T04:08:36.504Z,15.94
2018-07-13T04:09:36.698Z,15.96
2018-07-13T04:10:36.913Z,16.07
2018-07-13T04:11:37.121Z,16.09
2018-07-13T04:12:37.314Z,16.11
2018-07-13T04:13:37.521Z,16.17
2018-07-13T04:14:37.747Z,16.35
2018-07-13T04:15:37.898Z,16.34
2018-07-13T04:16:38.086Z,16.49
2018-07-13T04:17:38.295Z,16.58
2018-07-13T04:18:38.503Z,16.61
2018-07-13T04:19:38.688Z,16.76
2018-07-13T04:20:38.878Z,16.88
2018-07-13T04:21:39.083Z,17.08
2018-07-13T04:22:39.276Z,17.23
2018-07-13T04:23:39.468Z,17.43
2018-07-13T04:24:39.648Z,17.86
2018-07-13T04:25:39.837Z,18.25
2018-07-13T04:26:40.039Z,18.69
2018-07-13T04:27:40.244Z,19.10
2018-07-13T04:28:40.491Z,19.36
2018-07-13T04:29:40.650Z,19.77
2018-07-13T04:30:40.867Z,20.06
2018-07-13T04:31:41.059Z,20.23
2018-07-13T04:32:41.261Z,20.24
2018-07-13T04:33:41.478Z,20.50
2018-07-13T04:34:41.668Z,20.77
2018-07-13T04:35:41.857Z,20.58
2018-07-13T04:36:42.068Z,20.58
2018-07-13T04:37:42.249Z,20.66
2018-07-13T04:38:42.454Z,20.28
2018-07-13T04:39:42.658Z,20.28
2018-07-13T04:40:42.905Z,20.73
2018-07-13T04:41:43.074Z,21.06
2018-07-13T04:42:43.259Z,21.32
2018-07-13T04:43:43.476Z,21.52
2018-07-13T04:44:43.667Z,21.17
2018-07-13T04:45:43.857Z,21.12
2018-07-13T04:46:44.054Z,21.10
2018-07-13T04:47:44.255Z,20.88
2018-07-13T04:48:44.433Z,20.61
2018-07-13T04:49:44.620Z,20.51
2018-07-13T04:50:44.819Z,20.61
2018-07-13T04:51:45.009Z,20.77
2018-07-13T04:52:45.202Z,20.79
2018-07-13T04:53:45.406Z,20.77
2018-07-13T04:54:45.601Z,20.94
2018-07-13T04:55:45.815Z,20.84
2018-07-13T04:56:46.025Z,20.84
2018-07-13T04:57:46.237Z,20.73
2018-07-13T04:58:46.458Z,20.87
2018-07-13T04:59:46.640Z,20.76
2018-07-13T05:00:46.841Z,20.94
2018-07-13T05:01:47.096Z,21.10
2018-07-13T05:02:47.250Z,21.21
2018-07-13T05:03:47.454Z,21.12
2018-07-13T05:04:47.656Z,20.88
2018-07-13T05:05:47.859Z,21.07
2018-07-13T05:06:48.057Z,21.07
2018-07-13T05:09:20.201Z,20.98
2018-07-13T05:10:20.380Z,21.07
2018-07-13T05:11:20.584Z,21.09
2018-07-13T05:12:20.797Z,21.21
2018-07-13T05:13:21.020Z,21.34
2018-07-13T05:14:21.212Z,21.10
2018-07-13T05:15:21.424Z,21.19
2018-07-13T05:16:21.637Z,21.37
2018-07-13T05:17:21.819Z,21.42
2018-07-13T05:18:22.091Z,21.50
2018-07-13T05:19:22.182Z,21.54
2018-07-13T05:20:22.394Z,21.67
2018-07-13T05:21:22.654Z,21.59
2018-07-13T05:22:22.798Z,21.77
2018-07-13T05:23:22.999Z,21.88
2018-07-13T05:24:23.176Z,21.82
2018-07-13T05:25:23.381Z,21.86
2018-07-13T05:26:23.606Z,22.28
2018-07-13T05:27:23.807Z,22.47
2018-07-13T05:28:24.017Z,22.76
2018-07-13T05:29:24.272Z,22.90
2018-07-13T05:30:24.465Z,22.85
2018-07-13T05:31:24.655Z,22.79
2018-07-13T05:32:24.925Z,22.90
2018-07-13T05:33:25.103Z,22.82
2018-07-13T05:34:25.313Z,22.49
2018-07-13T05:35:25.536Z,22.64
2018-07-13T05:36:25.738Z,22.68
2018-07-13T05:37:25.949Z,22.51
2018-07-13T05:38:26.209Z,22.94
2018-07-13T05:39:26.371Z,22.80
2018-07-13T05:40:26.564Z,23.00
2018-07-13T05:41:26.783Z,23.19
2018-07-13T05:42:26.999Z,23.12
2018-07-13T05:43:27.196Z,23.16
2018-07-13T05:44:27.375Z,23.19
2018-07-13T05:45:27.571Z,23.65
2018-07-13T05:46:27.755Z,23.55
2018-07-13T05:47:27.971Z,23.65
2018-07-13T05:48:28.184Z,23.55
2018-07-13T05:49:28.400Z,23.48
2018-07-13T05:50:28.615Z,23.61
2018-07-13T05:51:28.826Z,23.63
2018-07-13T05:52:29.020Z,23.61
2018-07-13T05:53:29.246Z,23.87
2018-07-13T05:54:29.434Z,23.97
2018-07-13T05:55:29.629Z,23.79
2018-07-13T05:56:29.818Z,23.65
2018-07-13T05:57:30.037Z,24.18
2018-07-13T06:00:02.251Z,23.65
2018-07-13T06:01:02.433Z,24.08
2018-07-13T06:02:02.679Z,24.22
2018-07-13T06:03:02.880Z,24.30
2018-07-13T06:04:03.112Z,24.12
2018-07-13T06:05:03.300Z,24.06
2018-07-13T06:06:03.496Z,24.42
2018-07-13T06:07:03.722Z,24.32
2018-07-13T06:08:03.898Z,24.55
2018-07-13T06:09:04.157Z,24.77
2018-07-13T06:10:04.357Z,25.54
2018-07-13T06:11:04.578Z,25.38
2018-07-13T06:12:04.774Z,26.15
2018-07-13T06:13:04.995Z,26.23
2018-07-13T06:14:05.201Z,25.61
2018-07-13T06:15:05.475Z,26.21
2018-07-13T06:16:05.617Z,26.15
2018-07-13T06:17:05.833Z,26.97
2018-07-13T06:18:06.033Z,27.85
2018-07-13T06:19:06.241Z,27.55
2018-07-13T06:20:06.435Z,27.81
2018-07-13T06:21:06.656Z,27.43
2018-07-13T06:22:06.868Z,27.27
2018-07-13T06:24:39.044Z,26.43
2018-07-13T06:25:39.213Z,26.69
2018-07-13T06:26:39.405Z,26.39
2018-07-13T06:27:39.613Z,27.12
2018-07-13T06:28:39.821Z,27.75
2018-07-13T06:29:40.026Z,27.29
2018-07-13T06:30:40.309Z,27.34
2018-07-13T06:31:40.382Z,27.50
2018-07-13T06:32:40.657Z,26.89
2018-07-13T06:33:40.791Z,27.02
2018-07-13T06:34:41.029Z,27.14
2018-07-13T06:35:41.204Z,26.73
2018-07-13T06:36:41.424Z,26.81
2018-07-13T06:37:41.634Z,26.69
2018-07-13T06:38:41.840Z,26.48
2018-07-13T06:39:42.057Z,27.18
2018-07-13T06:40:42.282Z,27.06
2018-07-13T06:41:42.500Z,27.03
2018-07-13T06:42:42.695Z,27.37
2018-07-13T06:45:14.879Z,27.29
2018-07-13T06:46:15.059Z,26.51
2018-07-13T06:47:15.273Z,26.66
2018-07-13T06:48:15.490Z,27.50
2018-07-13T06:49:15.713Z,27.97
2018-07-13T06:50:15.900Z,27.77
2018-07-13T06:51:16.206Z,27.06
2018-07-13T06:52:16.326Z,27.02
2018-07-13T06:53:16.555Z,27.12
2018-07-13T06:54:16.769Z,27.36
2018-07-13T06:55:16.990Z,27.43
2018-07-13T06:56:17.202Z,27.55
2018-07-13T06:57:17.422Z,27.46
2018-07-13T06:58:17.627Z,28.19
2018-07-13T06:59:17.841Z,28.58
2018-07-13T07:00:18.054Z,28.21
2018-07-13T07:01:18.256Z,28.44
2018-07-13T07:02:18.455Z,28.34
2018-07-13T07:03:18.711Z,29.21
2018-07-13T07:04:18.915Z,29.11
2018-07-13T07:05:19.126Z,28.76
2018-07-13T07:06:19.343Z,29.51
2018-07-13T07:07:19.542Z,29.87
2018-07-13T07:08:19.740Z,29.52
2018-07-13T07:09:20.043Z,28.88
2018-07-13T07:10:20.184Z,29.87
2018-07-13T07:11:20.266Z,29.94
2018-07-13T07:12:20.483Z,29.86
2018-07-13T07:13:20.692Z,29.67
2018-07-13T07:14:20.892Z,29.80
2018-07-13T07:15:21.094Z,29.78
2018-07-13T07:16:21.311Z,29.53
2018-07-13T07:17:21.510Z,29.71
2018-07-13T07:18:21.730Z,29.55
2018-07-13T07:19:21.955Z,29.64
2018-07-13T07:20:22.156Z,29.45
2018-07-13T07:21:22.377Z,29.33
2018-07-13T07:22:22.577Z,29.74
2018-07-13T07:23:22.771Z,30.55
2018-07-13T07:24:23.044Z,30.32
2018-07-13T07:25:23.184Z,30.15
2018-07-13T07:26:23.380Z,30.16
2018-07-13T07:28:55.541Z,30.72
2018-07-13T07:29:55.730Z,31.10
2018-07-13T07:30:55.953Z,31.65
2018-07-13T07:31:56.155Z,31.65
2018-07-13T07:32:56.368Z,31.46
2018-07-13T07:33:56.570Z,30.60
2018-07-13T07:34:56.778Z,30.24
2018-07-13T07:35:56.994Z,30.51
2018-07-13T07:36:57.218Z,31.14
2018-07-13T07:37:57.447Z,31.80
2018-07-13T07:40:29.675Z,31.95
2018-07-13T07:41:29.864Z,31.86
2018-07-13T07:42:30.084Z,31.25
2018-07-13T07:43:30.307Z,30.95
2018-07-13T07:44:30.501Z,30.55
2018-07-13T07:45:30.737Z,30.84
2018-07-13T07:46:30.924Z,31.10
2018-07-13T07:47:31.123Z,31.04
2018-07-13T07:48:31.328Z,31.13
2018-07-13T07:49:31.545Z,30.99
2018-07-13T07:50:31.769Z,31.13
2018-07-13T07:51:31.966Z,31.23
2018-07-13T07:52:32.189Z,31.70
2018-07-13T07:53:32.424Z,31.91
2018-07-13T07:54:32.561Z,32.30
2018-07-13T07:55:32.761Z,31.69
2018-07-13T07:56:32.995Z,32.33
2018-07-13T07:57:33.294Z,32.77
2018-07-13T07:58:33.443Z,32.44
2018-07-13T07:59:33.651Z,32.25
2018-07-13T08:00:33.873Z,31.14
2018-07-13T08:01:34.096Z,30.77
2018-07-13T08:02:34.325Z,30.84
2018-07-13T08:03:34.555Z,30.86
2018-07-13T08:04:34.799Z,31.12
2018-07-13T08:05:34.980Z,31.16
2018-07-13T08:06:35.477Z,31.85
2018-07-13T08:07:35.555Z,31.65
2018-07-13T08:08:35.694Z,32.41
2018-07-13T08:09:35.896Z,32.55
2018-07-13T08:10:36.116Z,31.91
2018-07-13T08:11:36.342Z,31.63
2018-07-13T08:12:36.545Z,31.25
2018-07-13T08:13:36.944Z,31.23
2018-07-13T08:14:37.090Z,31.38
2018-07-13T08:15:37.177Z,31.78
2018-07-13T08:16:37.402Z,32.10
2018-07-13T08:17:37.620Z,32.19
2018-07-13T08:18:37.835Z,32.60
2018-07-13T08:19:38.075Z,32.62
2018-07-13T08:20:38.274Z,33.16
2018-07-13T08:21:38.476Z,34.02
2018-07-13T08:22:38.697Z,33.42
2018-07-13T08:23:38.906Z,33.49
2018-07-13T08:24:39.114Z,33.94
2018-07-13T08:25:39.314Z,33.90
2018-07-13T08:26:39.544Z,33.65
2018-07-13T08:27:39.739Z,33.56
2018-07-13T08:28:39.942Z,33.47
2018-07-13T08:29:40.148Z,33.45
2018-07-13T08:30:40.363Z,33.53
2018-07-13T08:33:12.532Z,32.57
2018-07-13T08:34:12.718Z,33.07
2018-07-13T08:35:12.942Z,33.49
2018-07-13T08:36:13.164Z,33.60
2018-07-13T08:37:13.383Z,33.12
2018-07-13T08:38:13.575Z,32.82
2018-07-13T08:39:13.774Z,31.85
2018-07-13T08:40:13.980Z,30.07
2018-07-13T08:41:14.200Z,29.16
2018-07-13T08:42:14.423Z,29.53
2018-07-13T08:43:14.636Z,30.51
2018-07-13T08:44:14.833Z,31.84
2018-07-13T08:45:15.043Z,32.69
2018-07-13T08:46:15.237Z,32.65
2018-07-13T08:47:15.455Z,33.12
2018-07-13T08:48:15.667Z,33.72
2018-07-13T08:49:15.878Z,32.28
2018-07-13T08:50:16.109Z,33.06
2018-07-13T08:51:16.358Z,33.90
2018-07-13T08:52:16.511Z,33.97
2018-07-13T08:53:16.724Z,34.21
2018-07-13T08:54:16.951Z,34.80
2018-07-13T08:55:17.148Z,34.30
2018-07-13T08:56:17.464Z,34.37
2018-07-13T08:57:17.579Z,33.47
2018-07-13T08:58:17.777Z,33.79
2018-07-13T08:59:17.985Z,34.61
2018-07-13T09:00:18.215Z,33.68
2018-07-13T09:01:18.414Z,32.99
2018-07-13T09:02:18.637Z,32.56
2018-07-13T09:03:18.821Z,32.08
2018-07-13T09:04:19.034Z,31.31
2018-07-13T09:05:19.249Z,30.97
2018-07-13T09:06:19.504Z,30.42
2018-07-13T09:07:19.686Z,31.20
2018-07-13T09:08:19.915Z,31.86
2018-07-13T09:09:20.135Z,32.19
2018-07-13T09:10:20.337Z,32.78
2018-07-13T09:11:20.553Z,32.40
2018-07-13T09:12:20.803Z,32.55
2018-07-13T09:13:21.009Z,33.35
2018-07-13T09:14:21.226Z,33.11
2018-07-13T09:15:21.441Z,33.39
2018-07-13T09:16:21.658Z,33.16
2018-07-13T09:17:21.859Z,33.88
2018-07-13T09:18:22.209Z,34.09
2018-07-13T09:19:22.296Z,33.28
2018-07-13T09:20:22.505Z,31.57
2018-07-13T09:21:22.740Z,31.75
2018-07-13T09:22:22.962Z,32.21
2018-07-13T09:23:23.148Z,31.39
2018-07-13T09:24:23.349Z,29.60
2018-07-13T09:25:23.556Z,28.56
2018-07-13T09:26:23.777Z,29.16
2018-07-13T09:27:23.987Z,30.23
2018-07-13T09:28:24.205Z,31.47
2018-07-13T09:29:24.430Z,31.39
2018-07-13T09:30:24.673Z,32.30
2018-07-13T09:31:24.868Z,32.21
2018-07-13T09:32:25.079Z,32.92
2018-07-13T09:33:25.310Z,33.18
2018-07-13T09:34:25.512Z,32.08
2018-07-13T09:35:25.757Z,30.89
2018-07-13T09:36:25.966Z,30.98
2018-07-13T09:37:26.190Z,31.72
2018-07-13T09:38:26.518Z,31.95
2018-07-13T09:39:26.652Z,32.45
2018-07-13T09:40:26.870Z,31.56
2018-07-13T09:41:27.102Z,30.10
2018-07-13T09:42:27.326Z,30.46
2018-07-13T09:43:27.529Z,31.16
2018-07-13T09:44:27.756Z,31.92
2018-07-13T09:45:27.993Z,31.53
2018-07-13T09:46:28.212Z,31.41
2018-07-13T09:49:00.450Z,32.13
2018-07-13T09:50:00.743Z,32.84
2018-07-13T09:51:00.812Z,32.59
2018-07-13T09:52:01.045Z,33.23
2018-07-13T09:53:01.271Z,32.29
2018-07-13T09:54:01.763Z,33.23
2018-07-13T09:55:01.677Z,33.06
2018-07-13T09:56:01.878Z,33.61
2018-07-13T09:57:02.091Z,34.00
2018-07-13T09:58:02.320Z,34.78
2018-07-13T09:59:02.546Z,34.03
2018-07-13T10:00:02.775Z,33.45
2018-07-13T10:01:03.002Z,33.49
2018-07-13T10:02:03.241Z,33.75
2018-07-13T10:03:03.450Z,33.04
2018-07-13T10:04:03.646Z,32.60
2018-07-13T10:05:03.883Z,31.73
2018-07-13T10:06:04.100Z,32.48
2018-07-13T10:07:04.349Z,32.77
2018-07-13T10:08:04.552Z,32.66
2018-07-13T10:09:04.780Z,31.43
2018-07-13T10:10:05.008Z,31.28
2018-07-13T10:11:05.243Z,31.95
2018-07-13T10:12:05.445Z,32.47
2018-07-13T10:13:05.654Z,32.56
2018-07-13T10:14:05.864Z,32.63
2018-07-13T10:15:06.077Z,32.44
2018-07-13T10:16:06.292Z,33.32
2018-07-13T10:17:06.520Z,32.81
2018-07-13T10:18:06.736Z,31.76
2018-07-13T10:19:06.951Z,32.38
2018-07-13T10:20:07.274Z,32.63
2018-07-13T10:21:07.391Z,32.88
2018-07-13T10:22:07.584Z,32.85
2018-07-13T10:23:07.788Z,32.85
2018-07-13T10:24:08.013Z,32.77
2018-07-13T10:25:08.250Z,32.88
2018-07-13T10:26:08.473Z,32.75
2018-07-13T10:27:08.674Z,33.16
2018-07-13T10:28:08.902Z,33.19
2018-07-13T10:29:09.126Z,32.40
2018-07-13T10:30:09.323Z,32.19
2018-07-13T10:31:09.547Z,31.39
2018-07-13T10:32:09.766Z,31.02
2018-07-13T10:33:09.966Z,31.01
2018-07-13T10:34:10.188Z,31.26
2018-07-13T10:35:10.414Z,31.46
2018-07-13T10:36:10.637Z,31.23
2018-07-13T10:37:10.855Z,31.76
2018-07-13T10:38:11.075Z,30.83
2018-07-13T10:40:43.329Z,31.54
2018-07-13T10:41:43.528Z,31.02
2018-07-13T10:42:43.744Z,30.20
2018-07-13T10:43:43.942Z,29.55
2018-07-13T10:44:44.160Z,29.36
2018-07-13T10:45:44.391Z,29.57
2018-07-13T10:46:44.619Z,29.71
2018-07-13T10:47:44.924Z,30.02
2018-07-13T10:48:45.056Z,29.86
2018-07-13T10:49:45.273Z,29.90
2018-07-13T10:50:45.514Z,30.27
2018-07-13T10:51:45.723Z,30.10
2018-07-13T10:52:45.984Z,30.24
2018-07-13T10:53:46.180Z,30.00
2018-07-13T10:54:46.422Z,30.24
2018-07-13T10:55:46.619Z,30.07
2018-07-13T10:56:46.835Z,30.51
2018-07-13T10:57:47.034Z,30.24
2018-07-13T11:00:18.913Z,29.86
2018-07-13T11:01:19.104Z,30.02
2018-07-13T11:02:19.309Z,29.89
2018-07-13T11:03:19.529Z,30.29
2018-07-13T11:04:19.748Z,30.32
2018-07-13T11:05:19.950Z,30.49
2018-07-13T11:06:20.160Z,30.65
2018-07-13T11:07:20.376Z,30.60
2018-07-13T11:08:20.585Z,30.67
2018-07-13T11:09:20.800Z,30.65
2018-07-13T11:10:21.000Z,30.65
2018-07-13T11:12:53.631Z,30.83
2018-07-13T11:13:53.595Z,30.94
2018-07-13T11:14:53.645Z,30.98
2018-07-13T11:17:25.493Z,30.76
2018-07-13T11:18:25.676Z,30.26
2018-07-13T11:19:25.883Z,30.31
2018-07-13T11:20:26.100Z,30.37
2018-07-13T11:21:26.293Z,29.52
2018-07-13T11:22:26.491Z,29.55
2018-07-13T11:23:26.680Z,29.86
2018-07-13T11:24:26.878Z,29.53
2018-07-13T11:25:27.076Z,29.70
2018-07-13T11:26:27.277Z,29.71
2018-07-13T11:27:27.474Z,29.53
2018-07-13T11:28:27.693Z,29.30
2018-07-13T11:29:27.911Z,28.90
2018-07-13T11:30:28.201Z,29.16
2018-07-13T11:31:28.287Z,29.57
2018-07-13T11:32:28.485Z,29.39
2018-07-13T11:33:28.699Z,29.82
2018-07-13T11:34:28.910Z,29.65
2018-07-13T11:35:29.135Z,30.02
2018-07-13T11:36:29.333Z,30.53
2018-07-13T11:37:29.558Z,30.86
2018-07-13T11:38:29.728Z,30.83
2018-07-13T11:39:29.922Z,30.84
2018-07-13T11:40:30.116Z,30.94
2018-07-13T11:41:30.400Z,31.16
2018-07-13T11:42:30.483Z,30.58
2018-07-13T11:43:30.701Z,30.51
2018-07-13T11:44:30.923Z,30.49
2018-07-13T11:45:31.128Z,30.92
2018-07-13T11:46:31.343Z,30.79
2018-07-13T11:47:31.558Z,30.51
2018-07-13T11:48:31.759Z,30.13
2018-07-13T11:49:31.968Z,28.66
2018-07-13T11:50:32.176Z,28.18
2018-07-13T11:51:32.389Z,28.33
2018-07-13T11:52:32.614Z,28.76
2018-07-13T11:53:32.825Z,29.23
2018-07-13T11:54:33.039Z,29.27
2018-07-13T11:55:33.255Z,29.82
2018-07-13T11:56:33.451Z,29.65
2018-07-13T11:57:33.658Z,29.76
2018-07-13T11:58:33.880Z,30.07
2018-07-13T11:59:34.072Z,29.63
2018-07-13T12:00:34.321Z,29.18
2018-07-13T12:01:34.480Z,29.48
2018-07-13T12:02:34.699Z,29.33
2018-07-13T12:03:34.889Z,28.93
2018-07-13T12:04:35.091Z,28.64
2018-07-13T12:05:35.296Z,28.44
2018-07-13T12:06:35.492Z,28.67
2018-07-13T12:07:35.734Z,29.34
2018-07-13T12:08:35.914Z,29.98
2018-07-13T12:09:36.139Z,30.27
2018-07-13T12:10:36.364Z,30.45
2018-07-13T12:11:36.569Z,30.57
2018-07-13T12:12:36.824Z,29.87
2018-07-13T12:13:36.973Z,29.76
2018-07-13T12:16:09.191Z,28.89
2018-07-13T12:17:09.376Z,29.48
2018-07-13T12:18:09.590Z,29.92
2018-07-13T12:19:09.813Z,29.74
2018-07-13T12:20:10.015Z,29.58
2018-07-13T12:21:10.209Z,29.12
2018-07-13T12:22:10.414Z,29.19
2018-07-13T12:23:10.645Z,29.83
2018-07-13T12:24:10.832Z,29.86
2018-07-13T12:25:11.032Z,30.04
2018-07-13T12:26:11.237Z,30.51
2018-07-13T12:27:11.429Z,30.20
2018-07-13T12:28:11.615Z,30.22
2018-07-13T12:29:11.841Z,30.76
2018-07-13T12:30:12.049Z,31.02
2018-07-13T12:31:12.248Z,30.31
2018-07-13T12:32:12.505Z,29.94
2018-07-13T12:34:44.668Z,28.54
2018-07-13T12:35:44.726Z,28.96
2018-07-13T12:36:44.924Z,29.02
2018-07-13T12:37:45.134Z,29.39
2018-07-13T12:38:45.351Z,29.55
2018-07-13T12:39:45.645Z,29.31
2018-07-13T12:40:45.782Z,29.39
2018-07-13T12:41:46.004Z,29.14
2018-07-13T12:42:46.214Z,29.51
2018-07-13T12:43:46.438Z,29.46
2018-07-13T12:44:47.253Z,29.45
2018-07-13T12:45:46.833Z,29.39
2018-07-13T12:46:47.043Z,29.68
2018-07-13T12:47:47.234Z,29.82
2018-07-13T12:48:47.449Z,29.65
2018-07-13T12:49:47.662Z,29.80
2018-07-13T12:50:47.863Z,29.80
2018-07-13T12:51:48.074Z,30.05
2018-07-13T12:52:48.293Z,30.04
2018-07-13T12:53:48.566Z,29.58
2018-07-13T12:54:48.712Z,29.00
2018-07-13T12:55:48.921Z,28.70
2018-07-13T12:56:49.119Z,29.27
2018-07-13T12:57:49.341Z,29.63
2018-07-13T12:58:49.536Z,30.13
2018-07-13T12:59:49.739Z,30.10
2018-07-13T13:00:49.958Z,29.97
2018-07-13T13:01:50.171Z,29.46
2018-07-13T13:02:50.396Z,29.16
2018-07-13T13:03:50.623Z,29.11
2018-07-13T13:04:50.820Z,29.53
2018-07-13T13:05:51.020Z,30.00
2018-07-13T13:06:51.223Z,30.04
2018-07-13T13:07:51.437Z,30.05
2018-07-13T13:08:51.626Z,29.43
2018-07-13T13:09:51.850Z,29.31
2018-07-13T13:12:24.001Z,29.11
2018-07-13T13:13:24.189Z,29.11
2018-07-13T13:14:24.411Z,28.64
2018-07-13T13:15:24.735Z,28.77
2018-07-13T13:16:24.839Z,28.93
2018-07-13T13:17:25.033Z,28.89
2018-07-13T13:18:25.223Z,28.88
2018-07-13T13:19:25.424Z,28.93
2018-07-13T13:20:25.624Z,29.04
2018-07-13T13:21:25.822Z,29.11
2018-07-13T13:22:26.041Z,29.36